Dixie Valour — WDC2681 — position and weather

sailwx.info

Track history (hours):
 
Tides and Currents Weather Stations Pressure Air Temp Water Temp Dewpoint Dewpoint Depression Visibility Wind Speed Wind Dir Waves Ship Positions

Dixie Valour

Owner: Kirby Inland Marine LP, Houston, TX. More information available from US FCC via Universal Licensing System and Coast Guard Vessel Documentation Center.

Last reported at 2017-Dec-10 07:10 UTC. Time now 2017-Dec-13 14:47 UTC.
Position N 29°31' W 094°53'.

Length 113 m; draft 3.1 m.

Type: . MMSI: 366996350.

Date/timePositionNaut miles runAvg speedWind from/ knotsBaromVisibWave heightAir tempDewpointWater temp
2017-Dec-10 07:10N 29°31' W 094°53'1 5.6
2017-Dec-10 06:56N 29°33' W 094°54'3 5.8
2017-Dec-10 06:28N 29°35' W 094°56'3 6.1
2017-Dec-10 06:00N 29°37' W 094°58'4 5.9
2017-Dec-10 05:24N 29°41' W 094°59'3 5.8
2017-Dec-10 04:57N 29°42' W 095°01'11 0.3
2017-Dec-08 11:49N 29°44' W 095°14'0 0.0
2017-Dec-08 11:27N 29°43' W 095°14'4 0.4
2017-Dec-08 01:40N 29°44' W 095°09'7 0.4
2017-Dec-07 10:15N 29°45' W 095°17'0 0.0
2017-Dec-07 07:36N 29°45' W 095°17'0 0.0
2017-Dec-07 07:18N 29°45' W 095°17'0 0.0
2017-Dec-07 06:51N 29°45' W 095°17'0 0.0
2017-Dec-07 06:25N 29°45' W 095°17'0 0.9
2017-Dec-07 05:57N 29°45' W 095°17'2 4.7
2017-Dec-07 05:26N 29°43' W 095°15'  
2017-Dec-03 00:54N 29°36' W 094°57'2 5.4
2017-Dec-03 00:30N 29°38' W 094°58'  
2017-Nov-30 10:47N 29°43' W 095°15'0 0.0
2017-Nov-30 09:58N 29°43' W 095°15'0 0.3
2017-Nov-30 09:30N 29°43' W 095°15'3 5.3
2017-Nov-30 08:57N 29°45' W 095°12'  
Track history (hours):
 
Tides and Currents Weather Stations Pressure Air Temp Water Temp Dewpoint Dewpoint Depression Visibility Wind Speed Wind Dir Waves Ship Positions

Dixie Valour

Owner: Kirby Inland Marine LP, Houston, TX. More information available from US FCC via Universal Licensing System and Coast Guard Vessel Documentation Center.

Last reported at 2017-Dec-10 07:10 UTC. Time now 2017-Dec-13 14:47 UTC.
Position N 29°31' W 094°53'.

Length 113 m; draft 3.1 m.

Type: . MMSI: 366996350.

Date/timePositionNaut miles runAvg speedWind from/ knotsBaromVisibWave heightAir tempDewpointWater temp
2017-Dec-10 07:10N 29°31' W 094°53'1 5.6
2017-Dec-10 06:56N 29°33' W 094°54'3 5.8
2017-Dec-10 06:28N 29°35' W 094°56'3 6.1
2017-Dec-10 06:00N 29°37' W 094°58'4 5.9
2017-Dec-10 05:24N 29°41' W 094°59'3 5.8
2017-Dec-10 04:57N 29°42' W 095°01'11 0.3
2017-Dec-08 11:49N 29°44' W 095°14'0 0.0
2017-Dec-08 11:27N 29°43' W 095°14'4 0.4
2017-Dec-08 01:40N 29°44' W 095°09'7 0.4
2017-Dec-07 10:15N 29°45' W 095°17'0 0.0
2017-Dec-07 07:36N 29°45' W 095°17'0 0.0
2017-Dec-07 07:18N 29°45' W 095°17'0 0.0
2017-Dec-07 06:51N 29°45' W 095°17'0 0.0
2017-Dec-07 06:25N 29°45' W 095°17'0 0.9
2017-Dec-07 05:57N 29°45' W 095°17'2 4.7
2017-Dec-07 05:26N 29°43' W 095°15'  
2017-Dec-03 00:54N 29°36' W 094°57'2 5.4
2017-Dec-03 00:30N 29°38' W 094°58'  
2017-Nov-30 10:47N 29°43' W 095°15'0 0.0
2017-Nov-30 09:58N 29°43' W 095°15'0 0.3
2017-Nov-30 09:30N 29°43' W 095°15'3 5.3
2017-Nov-30 08:57N 29°45' W 095°12'  

Dump ship's entire track history